Time;durP1;ratioP1;P1;durP2;ratioP2;P2;SDS_P1;SDS_P2;PMS_P1;PMS_P2;Temp;Humidity;BMP_temperature;BMP_pressure;BME280_temperature;BME280_humidity;BME280_pressure;Samples;Min_cycle;Max_cycle;Signal;HPM_P1;HPM_P2
2023/03/23 00:02:27;;;;;;;8.50;5.80;;;13.40;67.80;;;;;;5051964;28;20079;-65
2023/03/23 00:04:53;;;;;;;9.70;5.70;;;13.40;68.00;;;;;;5052348;28;20103;-65
2023/03/23 00:07:22;;;;;;;9.45;5.70;;;13.40;68.00;;;;;;5051983;28;20045;-64
2023/03/23 00:09:53;;;;;;;11.80;6.18;;;13.40;68.30;;;;;;5052236;28;20025;-64
2023/03/23 00:12:33;;;;;;;10.02;5.97;;;13.30;68.50;;;;;;5051470;28;20033;-66
2023/03/23 00:15:00;;;;;;;10.20;5.70;;;13.30;68.80;;;;;;5051888;28;20064;-65
2023/03/23 00:17:28;;;;;;;14.18;6.05;;;13.20;68.70;;;;;;5051918;28;20017;-66
2023/03/23 00:19:53;;;;;;;16.33;6.35;;;13.20;68.80;;;;;;5051187;28;20386;-65
2023/03/23 00:22:20;;;;;;;9.77;6.25;;;13.10;68.80;;;;;;5051547;28;20029;-66
2023/03/23 00:24:47;;;;;;;9.68;6.10;;;13.10;69.20;;;;;;5052109;28;20079;-65
2023/03/23 00:27:14;;;;;;;10.68;6.38;;;13.00;69.50;;;;;;5051624;28;20048;-66
2023/03/23 00:29:41;;;;;;;10.93;5.93;;;13.00;70.00;;;;;;5052029;28;20090;-66
2023/03/23 00:32:12;;;;;;;14.60;6.10;;;13.00;70.10;;;;;;5051494;28;20033;-66
2023/03/23 00:34:40;;;;;;;13.30;6.88;;;12.90;70.20;;;;;;5052099;28;20028;-65
2023/03/23 00:37:07;;;;;;;12.18;5.85;;;12.90;69.90;;;;;;5052189;28;20025;-68
2023/03/23 00:39:33;;;;;;;13.75;6.35;;;12.90;70.40;;;;;;5055797;28;20037;-66
2023/03/23 00:42:02;;;;;;;10.30;6.35;;;12.90;70.10;;;;;;5055505;28;20468;-66
2023/03/23 00:44:30;;;;;;;12.95;7.20;;;12.90;70.50;;;;;;5055167;28;20036;-66
2023/03/23 00:47:00;;;;;;;10.95;6.43;;;12.80;70.90;;;;;;5055772;28;20051;-66
2023/03/23 00:49:26;;;;;;;20.60;7.13;;;12.80;71.30;;;;;;5055533;28;20452;-66
2023/03/23 00:51:54;;;;;;;10.85;6.43;;;12.80;71.50;;;;;;5055376;28;20029;-65
2023/03/23 00:54:20;;;;;;;12.02;6.68;;;12.70;71.50;;;;;;5055073;28;20025;-65
2023/03/23 00:56:45;;;;;;;13.98;7.30;;;12.70;71.40;;;;;;5055527;28;20099;-65
2023/03/23 00:59:11;;;;;;;13.32;7.07;;;12.70;72.10;;;;;;5055150;28;20104;-66
2023/03/23 01:01:37;;;;;;;15.63;6.80;;;12.70;71.90;;;;;;5055521;28;20028;-65
2023/03/23 01:04:06;;;;;;;16.05;6.82;;;12.70;72.20;;;;;;5055414;28;20378;-65
2023/03/23 01:06:35;;;;;;;13.82;7.07;;;12.70;72.70;;;;;;5054563;28;20082;-65
2023/03/23 01:09:02;;;;;;;15.65;6.80;;;12.70;72.40;;;;;;5055063;28;20477;-65
2023/03/23 01:11:27;;;;;;;18.23;7.60;;;12.70;72.60;;;;;;5054820;28;20368;-65
2023/03/23 01:13:54;;;;;;;16.38;7.15;;;12.70;72.30;;;;;;5055302;28;20033;-65
2023/03/23 01:16:19;;;;;;;14.88;6.85;;;12.60;72.20;;;;;;5054655;28;20032;-65
2023/03/23 01:18:45;;;;;;;20.08;7.40;;;12.60;72.60;;;;;;5054426;28;20025;-64
2023/03/23 01:21:17;;;;;;;23.90;6.70;;;12.50;72.80;;;;;;5054523;28;20042;-64
2023/03/23 01:23:44;;;;;;;14.25;6.65;;;12.50;73.10;;;;;;5055148;28;20037;-66
2023/03/23 01:26:15;;;;;;;13.70;7.28;;;12.50;73.20;;;;;;5054653;28;20082;-66
2023/03/23 01:28:41;;;;;;;18.88;7.03;;;12.50;73.20;;;;;;5054978;28;20032;-66
2023/03/23 01:31:11;;;;;;;17.80;7.03;;;12.40;73.10;;;;;;5054967;28;20466;-65
2023/03/23 01:33:39;;;;;;;17.67;6.60;;;12.40;73.40;;;;;;5054597;28;20377;-66
2023/03/23 01:36:07;;;;;;;21.92;7.15;;;12.30;73.60;;;;;;5054681;28;20116;-65
2023/03/23 01:38:34;;;;;;;16.60;7.07;;;12.30;73.90;;;;;;5054040;28;20443;-65
2023/03/23 01:41:00;;;;;;;16.52;6.68;;;12.20;74.30;;;;;;5054675;28;20115;-65
2023/03/23 01:43:26;;;;;;;14.45;6.57;;;12.20;74.50;;;;;;5054083;28;20045;-65
2023/03/23 01:45:52;;;;;;;11.50;6.50;;;12.20;74.30;;;;;;5054578;28;20025;-64
2023/03/23 01:48:26;;;;;;;14.82;6.00;;;12.20;74.50;;;;;;5053819;28;20056;-66
2023/03/23 01:51:15;;;;;;;11.55;6.45;;;12.20;74.20;;;;;;5054665;28;20021;-66
2023/03/23 01:53:53;;;;;;;8.85;5.47;;;12.20;74.50;;;;;;5054224;28;20032;-65
2023/03/23 01:56:26;;;;;;;10.52;5.25;;;12.20;74.40;;;;;;5053766;28;20104;-65
2023/03/23 01:58:55;;;;;;;8.95;5.93;;;12.20;74.40;;;;;;5053459;28;20029;-65
2023/03/23 02:01:21;;;;;;;11.10;5.57;;;12.20;74.20;;;;;;5054043;28;20029;-65
2023/03/23 02:03:51;;;;;;;9.80;5.60;;;12.20;74.10;;;;;;5054269;28;20542;-66
2023/03/23 02:06:16;;;;;;;10.45;5.63;;;12.10;74.10;;;;;;5054268;28;20035;-66
2023/03/23 02:08:43;;;;;;;12.77;5.05;;;12.10;74.40;;;;;;5054468;28;20381;-66
2023/03/23 02:11:21;;;;;;;7.78;4.28;;;12.10;74.10;;;;;;5054182;28;20044;-65
2023/03/23 02:13:48;;;;;;;7.53;4.80;;;12.10;74.30;;;;;;5054263;28;20036;-64
2023/03/23 02:16:19;;;;;;;7.97;5.18;;;12.00;74.10;;;;;;5053759;28;20044;-65
2023/03/23 02:18:52;;;;;;;8.38;4.90;;;12.10;74.30;;;;;;5053876;28;20100;-65
2023/03/23 02:21:41;;;;;;;8.43;4.68;;;12.10;74.40;;;;;;5053824;28;20029;-65
2023/03/23 02:24:28;;;;;;;12.50;5.13;;;12.00;74.30;;;;;;5052450;28;20021;-65
2023/03/23 02:27:16;;;;;;;6.35;4.43;;;12.00;74.50;;;;;;5053718;28;20184;-65
2023/03/23 02:29:45;;;;;;;11.60;5.47;;;12.00;74.60;;;;;;5053820;28;20032;-65
2023/03/23 02:32:32;;;;;;;5.43;4.38;;;12.00;74.90;;;;;;5053858;28;20025;-65
2023/03/23 02:35:10;;;;;;;9.45;4.53;;;12.00;74.80;;;;;;5053575;28;20078;-66
2023/03/23 02:37:40;;;;;;;8.38;4.53;;;11.90;74.70;;;;;;5052903;28;20020;-66
2023/03/23 02:40:12;;;;;;;11.20;4.50;;;11.90;74.60;;;;;;5054004;28;20032;-66
2023/03/23 02:42:42;;;;;;;7.28;4.03;;;11.90;74.80;;;;;;5052909;28;20098;-66
2023/03/23 02:45:10;;;;;;;6.03;4.50;;;11.90;74.60;;;;;;5053802;28;20111;-66
2023/03/23 02:47:38;;;;;;;9.10;4.13;;;11.80;74.80;;;;;;5052983;28;20054;-64
2023/03/23 02:50:12;;;;;;;5.82;3.85;;;11.80;74.80;;;;;;5053305;28;20136;-65
2023/03/23 02:52:40;;;;;;;9.82;5.10;;;11.80;74.80;;;;;;5052613;28;20041;-66
2023/03/23 02:55:07;;;;;;;7.43;4.55;;;11.80;75.00;;;;;;5053064;28;20021;-66
2023/03/23 02:57:33;;;;;;;8.75;4.85;;;11.80;75.10;;;;;;5052794;28;20119;-66
2023/03/23 02:59:59;;;;;;;6.35;4.97;;;11.70;75.40;;;;;;5052596;28;20078;-66
2023/03/23 03:02:36;;;;;;;10.65;4.88;;;11.70;75.40;;;;;;5053036;28;20432;-66
2023/03/23 03:05:36;;;;;;;9.75;5.22;;;11.70;75.50;;;;;;5053113;28;20469;-66
2023/03/23 03:08:13;;;;;;;8.18;4.70;;;11.70;75.90;;;;;;5050644;28;20036;-66
2023/03/23 03:10:59;;;;;;;10.18;5.07;;;11.60;76.10;;;;;;5052249;28;20094;-66
2023/03/23 03:13:31;;;;;;;6.78;4.47;;;11.60;76.00;;;;;;5052546;28;20029;-66
2023/03/23 03:16:07;;;;;;;7.28;4.68;;;11.50;76.50;;;;;;5052901;28;20370;-66
2023/03/23 03:18:49;;;;;;;6.57;4.93;;;11.50;76.70;;;;;;5052873;28;20044;-66
2023/03/23 03:21:16;;;;;;;;;;;11.40;77.20;;;;;;5053098;28;20017;-66
2023/03/23 03:23:45;;;;;;;8.35;4.45;;;11.50;77.30;;;;;;5052390;28;20269;-66
2023/03/23 03:26:17;;;;;;;8.27;4.82;;;11.50;77.30;;;;;;5052562;28;20036;-66
2023/03/23 03:28:47;;;;;;;10.80;4.78;;;11.50;78.00;;;;;;5052227;28;20120;-65
2023/03/23 03:31:17;;;;;;;11.95;6.35;;;11.40;77.80;;;;;;5052802;28;20040;-65
2023/03/23 03:33:44;;;;;;;13.60;7.65;;;11.40;78.20;;;;;;5052768;28;20037;-65
2023/03/23 03:36:16;;;;;;;11.52;7.18;;;11.30;79.10;;;;;;5052766;28;20040;-65
2023/03/23 03:38:48;;;;;;;14.15;7.68;;;11.30;80.00;;;;;;5051876;28;20461;-65
2023/03/23 03:41:15;;;;;;;15.35;7.35;;;11.30;79.90;;;;;;5052360;28;20151;-65
2023/03/23 03:43:40;;;;;;;16.38;7.82;;;11.20;80.30;;;;;;5052180;28;20041;-65
2023/03/23 03:46:06;;;;;;;12.50;8.55;;;11.20;80.90;;;;;;5052529;28;20476;-65
2023/03/23 03:48:32;;;;;;;13.27;7.60;;;11.10;81.10;;;;;;5051983;28;20078;-66
2023/03/23 03:51:00;;;;;;;17.48;8.07;;;11.20;81.20;;;;;;5052450;28;20512;-65
2023/03/23 03:53:26;;;;;;;17.92;8.35;;;11.20;81.10;;;;;;5051937;28;20025;-65
2023/03/23 03:55:55;;;;;;;13.75;7.78;;;11.10;81.40;;;;;;5052420;28;20449;-65
2023/03/23 03:58:22;;;;;;;17.77;8.02;;;11.10;81.50;;;;;;5051975;28;20036;-67
2023/03/23 04:00:48;;;;;;;15.40;8.50;;;11.10;81.70;;;;;;5052396;28;20033;-66
2023/03/23 04:03:16;;;;;;;24.55;7.90;;;11.10;81.90;;;;;;5052409;28;20025;-65
2023/03/23 04:05:44;;;;;;;15.60;8.63;;;11.00;82.10;;;;;;5051806;28;20033;-65
2023/03/23 04:08:11;;;;;;;12.68;8.07;;;11.10;82.50;;;;;;5052090;28;20025;-65
2023/03/23 04:10:37;;;;;;;19.33;9.10;;;11.10;82.60;;;;;;5052058;28;20032;-65
2023/03/23 04:13:04;;;;;;;14.32;8.98;;;11.10;82.90;;;;;;5055861;28;20454;-65
2023/03/23 04:15:30;;;;;;;20.40;9.80;;;11.00;83.10;;;;;;5055975;28;20032;-66
2023/03/23 04:17:56;;;;;;;18.48;9.35;;;11.00;83.50;;;;;;5056320;28;20104;-65
2023/03/23 04:20:23;;;;;;;16.60;8.35;;;11.00;83.70;;;;;;5056245;28;20182;-69
2023/03/23 04:22:49;;;;;;;12.85;9.10;;;11.00;84.00;;;;;;5055713;28;20056;-66
2023/03/23 04:25:20;;;;;;;17.00;9.18;;;10.90;84.40;;;;;;5055503;28;20098;-66
2023/03/23 04:27:53;;;;;;;14.70;9.27;;;10.90;84.70;;;;;;5055750;28;20082;-66
2023/03/23 04:30:24;;;;;;;16.92;9.73;;;11.00;84.60;;;;;;5056172;28;20025;-66
2023/03/23 04:32:51;;;;;;;14.10;9.23;;;11.00;84.30;;;;;;5056276;28;20033;-65
2023/03/23 04:35:19;;;;;;;13.60;9.77;;;11.00;84.30;;;;;;5055971;28;20075;-66
2023/03/23 04:37:45;;;;;;;14.60;9.40;;;10.90;84.20;;;;;;5055327;28;20201;-66
2023/03/23 04:40:14;;;;;;;12.90;8.85;;;10.90;84.50;;;;;;5055620;28;20037;-65
2023/03/23 04:42:46;;;;;;;12.82;8.98;;;10.90;84.90;;;;;;5054900;28;20489;-65
2023/03/23 04:45:21;;;;;;;15.60;9.65;;;10.90;85.30;;;;;;5055763;28;20021;-64
2023/03/23 04:47:57;;;;;;;15.57;9.63;;;10.90;85.50;;;;;;5055009;28;20532;-67
2023/03/23 04:50:26;;;;;;;14.25;8.68;;;10.90;85.20;;;;;;5055534;28;20025;-66
2023/03/23 04:52:53;;;;;;;13.00;7.65;;;11.00;84.80;;;;;;5055499;28;20355;-66
2023/03/23 04:55:20;;;;;;;16.33;8.07;;;10.90;84.60;;;;;;5055596;28;20024;-66
2023/03/23 04:57:46;;;;;;;16.35;8.85;;;11.00;84.60;;;;;;5054828;28;20032;-66
2023/03/23 05:00:16;;;;;;;14.38;8.65;;;11.00;84.50;;;;;;5055394;28;20033;-66
2023/03/23 05:02:43;;;;;;;15.88;7.97;;;11.00;84.90;;;;;;5054913;28;20112;-66
2023/03/23 05:05:11;;;;;;;18.05;8.68;;;11.00;85.00;;;;;;5055271;28;20021;-66
2023/03/23 05:07:41;;;;;;;14.60;8.32;;;11.00;85.40;;;;;;5055027;28;20091;-65
2023/03/23 05:10:09;;;;;;;15.35;8.10;;;11.00;85.00;;;;;;5055216;28;20476;-65
2023/03/23 05:12:34;;;;;;;13.48;8.60;;;11.00;84.60;;;;;;5054645;28;20063;-65
2023/03/23 05:15:00;;;;;;;11.93;7.68;;;11.00;85.20;;;;;;5054320;28;20074;-65
2023/03/23 05:17:26;;;;;;;12.88;7.80;;;11.00;85.00;;;;;;5055133;28;20032;-69
2023/03/23 05:19:52;;;;;;;11.02;8.50;;;11.00;85.00;;;;;;5055178;28;20030;-67
2023/03/23 05:22:20;;;;;;;18.58;8.00;;;10.90;85.50;;;;;;5054876;28;20057;-66
2023/03/23 05:24:46;;;;;;;14.38;7.78;;;10.90;85.00;;;;;;5053743;28;20036;-66
2023/03/23 05:27:14;;;;;;;17.52;9.13;;;10.90;85.40;;;;;;5055079;28;20061;-65
2023/03/23 05:29:40;;;;;;;13.50;8.80;;;10.90;85.10;;;;;;5054459;28;20502;-67
2023/03/23 05:32:07;;;;;;;13.80;8.38;;;10.90;85.00;;;;;;5054944;28;20100;-65
2023/03/23 05:34:34;;;;;;;12.82;8.50;;;10.80;85.20;;;;;;5054301;28;20381;-65
2023/03/23 05:37:01;;;;;;;14.32;9.25;;;10.90;84.70;;;;;;5054788;28;20060;-65
2023/03/23 05:39:28;;;;;;;11.85;7.50;;;10.90;84.90;;;;;;5054754;28;20373;-65
2023/03/23 05:41:55;;;;;;;20.90;8.90;;;10.90;84.80;;;;;;5054280;28;20052;-66
2023/03/23 05:44:21;;;;;;;15.43;8.48;;;11.00;84.40;;;;;;5054200;28;20499;-65
2023/03/23 05:46:47;;;;;;;13.73;7.28;;;11.00;83.80;;;;;;5054247;28;20100;-67
2023/03/23 05:49:15;;;;;;;13.75;8.00;;;11.00;84.20;;;;;;5054261;28;20116;-65
2023/03/23 05:51:42;;;;;;;10.23;7.35;;;11.00;83.80;;;;;;5054180;28;20029;-66
2023/03/23 05:54:08;;;;;;;12.88;7.22;;;11.00;84.20;;;;;;5054290;28;20029;-65
2023/03/23 05:56:34;;;;;;;15.85;7.85;;;11.10;84.50;;;;;;5054100;28;20036;-66
2023/03/23 05:59:00;;;;;;;13.43;7.00;;;11.20;83.80;;;;;;5054499;28;20037;-66
2023/03/23 06:01:27;;;;;;;21.83;11.70;;;11.30;83.00;;;;;;5054292;28;20060;-66
2023/03/23 06:03:53;;;;;;;15.55;8.77;;;11.40;82.30;;;;;;5053805;28;20025;-66
2023/03/23 06:06:20;;;;;;;15.52;7.50;;;11.50;81.40;;;;;;5054299;28;20041;-66
2023/03/23 06:08:46;;;;;;;12.73;7.40;;;11.60;80.70;;;;;;5053726;28;20029;-66
2023/03/23 06:11:13;;;;;;;12.35;7.38;;;11.70;80.30;;;;;;5053891;28;20040;-66
2023/03/23 06:13:38;;;;;;;9.32;6.85;;;11.70;80.50;;;;;;5053581;28;20024;-66
2023/03/23 06:16:05;;;;;;;10.63;6.70;;;11.70;79.60;;;;;;5053679;28;20526;-66
2023/03/23 06:18:33;;;;;;;12.65;6.47;;;11.70;81.00;;;;;;5052480;28;20041;-67
2023/03/23 06:21:00;;;;;;;12.00;7.20;;;11.80;80.10;;;;;;5052976;28;20348;-66
2023/03/23 06:23:26;;;;;;;10.45;6.53;;;11.90;79.70;;;;;;5053755;28;20075;-66
2023/03/23 06:26:01;;;;;;;11.60;6.53;;;12.00;79.10;;;;;;5053432;28;20021;-66
2023/03/23 06:28:27;;;;;;;11.35;6.68;;;12.10;78.30;;;;;;5053500;28;20428;-66
2023/03/23 06:30:53;;;;;;;11.30;6.78;;;12.10;77.00;;;;;;5053383;28;20025;-65
2023/03/23 06:33:19;;;;;;;12.93;7.78;;;12.20;77.40;;;;;;5053301;28;20485;-66
2023/03/23 06:35:45;;;;;;;19.30;6.97;;;12.20;77.20;;;;;;5052440;28;20465;-66
2023/03/23 06:38:10;;;;;;;11.68;7.25;;;12.20;77.30;;;;;;5053486;28;20021;-65
2023/03/23 06:40:36;;;;;;;11.52;7.32;;;12.40;77.90;;;;;;5053234;28;20377;-65
2023/03/23 06:43:06;;;;;;;18.80;7.68;;;12.60;76.90;;;;;;5053406;28;20056;-65
2023/03/23 06:45:31;;;;;;;13.48;7.25;;;12.80;75.70;;;;;;5051936;28;20050;-65
2023/03/23 06:47:57;;;;;;;11.45;7.20;;;13.00;75.30;;;;;;5052916;28;20024;-65
2023/03/23 06:50:23;;;;;;;16.92;7.38;;;13.00;73.70;;;;;;5053106;28;20044;-65
2023/03/23 06:52:50;;;;;;;19.70;7.40;;;13.00;73.20;;;;;;5052518;28;20032;-65
2023/03/23 06:55:17;;;;;;;12.88;7.47;;;13.10;73.50;;;;;;5053284;28;20035;-65
2023/03/23 06:57:44;;;;;;;13.93;7.53;;;13.20;72.60;;;;;;5052589;28;20025;-66
2023/03/23 07:00:13;;;;;;;14.20;8.02;;;13.20;73.00;;;;;;5053207;28;20346;-66
2023/03/23 07:02:42;;;;;;;14.40;7.57;;;13.40;72.40;;;;;;5052677;28;20107;-66
2023/03/23 07:05:09;;;;;;;15.60;7.72;;;13.50;72.20;;;;;;5053105;28;20025;-67
2023/03/23 07:07:36;;;;;;;13.55;8.43;;;13.50;71.30;;;;;;5052677;28;20025;-66
2023/03/23 07:10:04;;;;;;;12.65;8.13;;;13.50;71.10;;;;;;5052996;28;20028;-66
2023/03/23 07:12:30;;;;;;;15.80;8.43;;;13.50;71.00;;;;;;5053064;28;20129;-66
2023/03/23 07:14:55;;;;;;;17.20;7.75;;;13.50;71.00;;;;;;5052475;28;20056;-67
2023/03/23 07:17:21;;;;;;;13.30;7.85;;;13.70;71.60;;;;;;5052956;28;20021;-66
2023/03/23 07:19:47;;;;;;;11.60;7.07;;;13.80;71.50;;;;;;5052137;28;20497;-66
2023/03/23 07:22:12;;;;;;;13.50;7.38;;;13.90;71.10;;;;;;5052327;28;20028;-66
2023/03/23 07:24:38;;;;;;;15.43;8.07;;;13.90;70.20;;;;;;5051376;28;20466;-66
2023/03/23 07:27:04;;;;;;;11.45;7.30;;;14.00;70.50;;;;;;5052631;28;20466;-66
2023/03/23 07:29:29;;;;;;;14.45;6.90;;;14.00;70.20;;;;;;5052122;28;20064;-65
2023/03/23 07:31:56;;;;;;;14.18;6.93;;;14.00;70.00;;;;;;5052238;28;20028;-65
2023/03/23 07:34:22;;;;;;;13.80;6.43;;;14.00;69.80;;;;;;5052527;28;20079;-66
2023/03/23 07:36:48;;;;;;;13.40;5.88;;;13.90;69.10;;;;;;5052060;28;20107;-64
2023/03/23 07:39:14;;;;;;;10.77;6.05;;;13.90;69.30;;;;;;5052192;28;20104;-66
2023/03/23 07:41:40;;;;;;;13.63;5.95;;;14.00;69.80;;;;;;5052137;28;20029;-66
2023/03/23 07:44:06;;;;;;;12.40;6.43;;;14.00;69.90;;;;;;5052643;28;20086;-66
2023/03/23 07:46:32;;;;;;;11.45;5.97;;;14.10;69.50;;;;;;5052144;28;20025;-65
2023/03/23 07:48:58;;;;;;;13.48;6.95;;;14.00;68.70;;;;;;5051884;28;20111;-66
2023/03/23 07:51:24;;;;;;;14.52;7.70;;;13.80;69.60;;;;;;5052364;28;20441;-66
2023/03/23 07:53:51;;;;;;;10.32;7.07;;;13.80;69.80;;;;;;5051716;28;20112;-66
2023/03/23 07:56:19;;;;;;;12.85;7.43;;;13.80;69.90;;;;;;5052326;28;20029;-66
2023/03/23 07:58:46;;;;;;;7.85;6.05;;;13.90;70.00;;;;;;5051796;28;20051;-66
2023/03/23 08:01:12;;;;;;;12.98;6.63;;;14.00;69.20;;;;;;5052077;28;20037;-65
2023/03/23 08:03:38;;;;;;;8.57;6.03;;;14.20;69.50;;;;;;5052308;28;20370;-65
2023/03/23 08:06:05;;;;;;;10.57;6.03;;;14.40;69.20;;;;;;5051041;28;20079;-65
2023/03/23 08:08:31;;;;;;;14.85;6.18;;;14.50;68.40;;;;;;5051981;28;20115;-66
2023/03/23 08:10:57;;;;;;;11.40;6.30;;;14.70;67.60;;;;;;5051438;28;20033;-65
2023/03/23 08:13:24;;;;;;;10.40;7.63;;;14.80;67.30;;;;;;5051891;28;20036;-67
2023/03/23 08:15:51;;;;;;;9.48;7.00;;;15.00;66.20;;;;;;5051625;28;20063;-65
2023/03/23 08:18:17;;;;;;;14.68;7.30;;;15.20;66.20;;;;;;5051585;28;20032;-66
2023/03/23 08:20:44;;;;;;;7.80;6.35;;;15.40;65.10;;;;;;5051345;28;20025;-66
2023/03/23 08:23:10;;;;;;;11.57;6.85;;;15.40;64.90;;;;;;5051976;28;20086;-66
2023/03/23 08:25:37;;;;;;;11.10;6.68;;;15.50;64.50;;;;;;5051793;28;20104;-66
2023/03/23 08:28:03;;;;;;;13.48;6.75;;;15.50;64.50;;;;;;5052090;28;20029;-66
2023/03/23 08:30:31;;;;;;;14.45;7.35;;;15.50;63.80;;;;;;5052087;28;20028;-65
2023/03/23 08:32:58;;;;;;;10.75;6.45;;;15.40;63.80;;;;;;5051342;28;20029;-66
2023/03/23 08:35:24;;;;;;;10.77;7.25;;;15.30;64.00;;;;;;5051751;28;20078;-65
2023/03/23 08:37:54;;;;;;;14.60;7.40;;;15.30;64.50;;;;;;5050143;28;20033;-65
2023/03/23 08:40:21;;;;;;;15.48;7.43;;;15.20;64.40;;;;;;5051964;28;20123;-65
2023/03/23 08:42:48;;;;;;;16.25;6.90;;;15.20;64.80;;;;;;5051105;28;20052;-64
2023/03/23 08:45:17;;;;;;;17.77;7.05;;;15.30;65.10;;;;;;5052165;28;20342;-66
2023/03/23 08:47:44;;;;;;;16.83;7.10;;;15.30;64.40;;;;;;5050079;28;20031;-65
2023/03/23 08:50:14;;;;;;;14.93;7.22;;;15.30;63.70;;;;;;5051768;28;20036;-65
2023/03/23 08:52:41;;;;;;;22.17;11.93;;;15.40;64.30;;;;;;5051862;28;20044;-65
2023/03/23 08:55:08;;;;;;;12.45;6.57;;;15.60;63.80;;;;;;5051906;28;20028;-66
2023/03/23 08:57:35;;;;;;;14.93;6.80;;;15.80;63.00;;;;;;5052039;28;20028;-64
2023/03/23 09:00:13;;;;;;;11.68;6.38;;;16.00;63.30;;;;;;5054745;28;20028;-66
2023/03/23 09:02:40;;;;;;;11.93;5.72;;;16.20;63.40;;;;;;5055516;28;20103;-66
2023/03/23 09:05:06;;;;;;;12.75;6.82;;;16.60;62.30;;;;;;5054645;28;20033;-67
2023/03/23 09:07:32;;;;;;;9.52;5.90;;;16.70;61.20;;;;;;5055186;28;20025;-65
2023/03/23 09:09:58;;;;;;;10.95;6.15;;;17.10;61.20;;;;;;5054930;28;20029;-65
2023/03/23 09:12:24;;;;;;;7.03;5.55;;;17.30;59.60;;;;;;5053870;28;20029;-65
2023/03/23 09:14:49;;;;;;;9.02;5.35;;;17.50;58.60;;;;;;5054775;28;20025;-65
2023/03/23 09:17:15;;;;;;;10.55;5.85;;;17.80;58.20;;;;;;5055331;28;20108;-64
2023/03/23 09:19:41;;;;;;;10.43;6.32;;;17.90;57.10;;;;;;5055196;28;20347;-64
2023/03/23 09:22:07;;;;;;;7.93;5.35;;;18.20;57.40;;;;;;5053414;28;20418;-64
2023/03/23 09:24:33;;;;;;;15.02;6.47;;;18.50;55.90;;;;;;5054481;28;20139;-65
2023/03/23 09:26:59;;;;;;;18.63;6.63;;;18.70;55.50;;;;;;5054771;28;20500;-65
2023/03/23 09:29:27;;;;;;;16.00;7.00;;;18.90;55.00;;;;;;5054782;28;20096;-64
2023/03/23 09:31:53;;;;;;;10.45;6.50;;;18.90;53.40;;;;;;5052950;28;20039;-65
2023/03/23 09:34:19;;;;;;;11.77;7.97;;;19.10;54.10;;;;;;5053486;28;20052;-65
2023/03/23 09:36:45;;;;;;;12.68;6.60;;;19.10;53.20;;;;;;5054433;28;20064;-66
2023/03/23 09:39:12;;;;;;;10.45;7.38;;;19.10;53.80;;;;;;5054567;28;20040;-65
2023/03/23 09:41:49;;;;;;;13.18;7.53;;;19.30;53.20;;;;;;5054763;28;20079;-66
2023/03/23 09:44:20;;;;;;;9.43;7.18;;;19.50;53.10;;;;;;5054140;28;20045;-65
2023/03/23 09:47:06;;;;;;;12.88;7.50;;;19.70;53.20;;;;;;5054069;28;20057;-67
2023/03/23 09:49:43;;;;;;;10.70;7.30;;;19.80;52.30;;;;;;5054273;28;20465;-66
2023/03/23 09:52:14;;;;;;;12.35;7.45;;;19.80;51.50;;;;;;5053751;28;20382;-65
2023/03/23 09:54:43;;;;;;;14.13;8.07;;;20.00;51.30;;;;;;5054391;28;20430;-65
2023/03/23 09:57:40;;;;;;;14.23;7.10;;;20.10;50.80;;;;;;5053638;28;20036;-65
2023/03/23 10:00:07;;;;;;;15.57;7.32;;;20.20;51.50;;;;;;5037021;28;20041;-65
2023/03/23 10:02:41;;;;;;;13.30;6.90;;;20.50;51.50;;;;;;5054107;28;20116;-65
2023/03/23 10:05:13;;;;;;;15.30;7.72;;;20.60;50.40;;;;;;5053645;28;20329;-64
2023/03/23 10:07:38;;;;;;;18.23;8.52;;;20.60;49.40;;;;;;5053912;28;20032;-67
2023/03/23 10:10:08;;;;;;;13.82;7.78;;;20.70;49.50;;;;;;5052933;28;20378;-65
2023/03/23 10:12:56;;;;;;;18.13;7.63;;;20.70;49.50;;;;;;5053771;28;20108;-65
2023/03/23 10:15:28;;;;;;;17.58;7.35;;;20.80;49.90;;;;;;5053605;28;20413;-65
2023/03/23 10:17:57;;;;;;;12.25;6.88;;;21.00;49.50;;;;;;5053592;28;20021;-65
2023/03/23 10:20:48;;;;;;;11.07;7.35;;;21.20;50.50;;;;;;5053710;28;20040;-64
2023/03/23 10:23:38;;;;;;;16.65;7.82;;;21.20;48.30;;;;;;5053184;28;20461;-64
2023/03/23 10:26:22;;;;;;;12.90;7.90;;;21.20;48.40;;;;;;5053310;28;20056;-65
2023/03/23 10:28:52;;;;;;;15.80;9.32;;;21.30;48.80;;;;;;5053783;28;20105;-65
2023/03/23 10:31:31;;;;;;;17.85;8.70;;;21.20;48.70;;;;;;5052500;28;20033;-66
2023/03/23 10:34:03;;;;;;;14.88;8.50;;;21.20;49.00;;;;;;5053266;28;20059;-66
2023/03/23 10:36:39;;;;;;;12.30;8.32;;;21.20;48.90;;;;;;5053858;28;20021;-65
2023/03/23 10:39:13;;;;;;;12.82;7.85;;;21.40;48.80;;;;;;5053259;28;20029;-66
2023/03/23 10:41:38;;;;;;;14.27;7.95;;;21.60;48.50;;;;;;5053158;28;20029;-65
2023/03/23 10:44:20;;;;;;;11.20;8.18;;;21.70;47.70;;;;;;5052505;28;20056;-65
2023/03/23 10:46:54;;;;;;;13.18;7.93;;;21.60;47.60;;;;;;5053486;28;20381;-66
2023/03/23 10:49:26;;;;;;;10.73;8.35;;;21.70;47.60;;;;;;5053335;28;20037;-65
2023/03/23 10:52:06;;;;;;;15.07;7.72;;;21.80;47.50;;;;;;5051286;28;20086;-66
2023/03/23 10:54:38;;;;;;;25.13;8.02;;;21.80;47.40;;;;;;5053196;28;20495;-65
2023/03/23 10:57:28;;;;;;;12.07;7.93;;;21.90;47.70;;;;;;5052531;28;20309;-66
2023/03/23 11:00:19;;;;;;;12.27;8.27;;;22.00;47.70;;;;;;5052492;28;20489;-65
2023/03/23 11:02:56;;;;;;;13.25;6.88;;;22.10;47.60;;;;;;5052653;28;20033;-66
2023/03/23 11:05:26;;;;;;;12.98;6.97;;;22.20;47.20;;;;;;5052506;28;20025;-65
2023/03/23 11:07:57;;;;;;;9.82;6.82;;;22.40;46.00;;;;;;5052605;28;20035;-65
2023/03/23 11:10:49;;;;;;;12.05;6.75;;;22.40;45.50;;;;;;5052818;28;20168;-65
2023/03/23 11:13:17;;;;;;;9.80;6.50;;;22.60;45.30;;;;;;5041557;28;20116;-65
2023/03/23 11:15:46;;;;;;;8.90;5.15;;;22.70;45.20;;;;;;5053007;28;20526;-65
2023/03/23 11:18:26;;;;;;;8.27;5.60;;;22.80;45.20;;;;;;5052297;28;20595;-65
2023/03/23 11:20:56;;;;;;;15.55;5.55;;;22.80;44.70;;;;;;5051885;28;20031;-65
2023/03/23 11:23:26;;;;;;;;;;;23.00;44.30;;;;;;5052715;28;20242;-66
2023/03/23 11:26:17;;;;;;;10.05;5.30;;;22.90;43.90;;;;;;5052486;28;19916;-65
2023/03/23 11:28:57;;;;;;;10.73;6.35;;;23.00;44.10;;;;;;5052302;28;20082;-66
2023/03/23 11:31:29;;;;;;;9.83;5.47;;;23.00;43.00;;;;;;5052877;28;20036;-65
2023/03/23 11:34:00;;;;;;;9.55;4.70;;;23.00;43.00;;;;;;5052142;28;20087;-66
2023/03/23 11:36:33;;;;;;;;;;;23.10;42.80;;;;;;5052852;28;20063;-65
2023/03/23 11:38:59;;;;;;;9.27;5.28;;;23.00;42.60;;;;;;5051972;28;19912;-66
2023/03/23 11:41:30;;;;;;;10.30;5.53;;;22.90;42.60;;;;;;5051135;28;20029;-66
2023/03/23 11:43:55;;;;;;;7.97;5.68;;;22.80;43.10;;;;;;5052037;28;20549;-66
2023/03/23 11:46:38;;;;;;;9.40;5.78;;;22.70;43.30;;;;;;5051899;28;20120;-65
2023/03/23 11:49:28;;;;;;;13.10;5.30;;;22.60;43.70;;;;;;5051769;28;20036;-65
2023/03/23 11:52:02;;;;;;;11.43;6.03;;;22.30;43.30;;;;;;5052277;28;20037;-65
2023/03/23 11:54:43;;;;;;;11.25;5.45;;;22.20;44.10;;;;;;5051944;28;20029;-66
2023/03/23 11:57:14;;;;;;;9.40;5.82;;;22.20;44.90;;;;;;5051715;28;20032;-66
2023/03/23 11:59:40;;;;;;;13.27;6.20;;;22.10;45.40;;;;;;5051980;28;20045;-65
2023/03/23 12:02:27;;;;;;;8.05;5.90;;;22.00;45.50;;;;;;5051584;28;20104;-66
2023/03/23 12:05:08;;;;;;;9.25;5.60;;;21.90;46.20;;;;;;5052104;28;20029;-65
2023/03/23 12:07:52;;;;;;;10.02;6.10;;;22.00;46.40;;;;;;5050937;28;20112;-65
2023/03/23 12:10:47;;;;;;;10.73;5.88;;;22.00;46.10;;;;;;5051290;28;20538;-66
2023/03/23 12:13:39;;;;;;;12.02;5.80;;;21.90;45.30;;;;;;5051837;28;20029;-66
2023/03/23 12:16:19;;;;;;;12.95;6.38;;;21.80;46.10;;;;;;5049516;28;20134;-65
2023/03/23 12:19:04;;;;;;;12.67;6.40;;;21.90;46.10;;;;;;5052338;28;20028;-66
2023/03/23 12:21:35;;;;;;;11.27;5.68;;;21.70;45.60;;;;;;5051089;28;20618;-65
2023/03/23 12:24:25;;;;;;;11.48;5.80;;;21.70;46.10;;;;;;5050897;28;20554;-66
2023/03/23 12:27:29;;;;;;;12.00;5.50;;;21.60;46.00;;;;;;5052041;28;20025;-66
2023/03/23 12:30:00;;;;;;;6.82;4.63;;;21.40;45.60;;;;;;5050471;28;20063;-66
2023/03/23 12:33:03;;;;;;;11.07;5.20;;;21.30;46.30;;;;;;5051599;28;20109;-67
2023/03/23 12:35:44;;;;;;;12.02;5.78;;;21.30;46.30;;;;;;5055804;28;20032;-66
2023/03/23 12:38:25;;;;;;;9.88;5.57;;;21.20;46.50;;;;;;5053971;28;20424;-66
2023/03/23 12:40:51;;;;;;;;;;;21.20;46.40;;;;;;5056049;28;20165;-66
2023/03/23 12:43:19;;;;;;;10.18;5.20;;;21.10;46.40;;;;;;5055006;28;19917;-66
2023/03/23 12:45:56;;;;;;;8.80;5.40;;;21.10;47.10;;;;;;5055934;28;20036;-67
2023/03/23 12:48:30;;;;;;;7.43;5.10;;;21.10;47.50;;;;;;5054923;28;20465;-66
2023/03/23 12:51:33;;;;;;;11.60;5.35;;;21.10;47.50;;;;;;5055705;28;20037;-67
2023/03/23 12:54:18;;;;;;;11.15;5.60;;;21.00;48.10;;;;;;5054417;28;20025;-65
2023/03/23 12:57:14;;;;;;;5.60;4.82;;;20.90;48.60;;;;;;5055304;28;20031;-66
2023/03/23 12:59:46;;;;;;;13.00;4.40;;;20.80;47.70;;;;;;5055683;28;20040;-65